sensor_id;sensor_type;location;lat;lon;timestamp;pressure;altitude;pressure_sealevel;temperature;humidity
4326;BME280;58429;49.826;10.880;2023-05-19T00:00:31;99373;;;11.3;59.26
4326;BME280;58429;49.826;10.880;2023-05-19T00:01:31;99375;;;11.29;59.04
4326;BME280;58429;49.826;10.880;2023-05-19T00:02:32;99377;;;11.29;59.05
4326;BME280;58429;49.826;10.880;2023-05-19T00:03:31;99377;;;11.28;59.1
4326;BME280;58429;49.826;10.880;2023-05-19T00:04:31;99374;;;11.28;59.04
4326;BME280;58429;49.826;10.880;2023-05-19T00:05:31;99379;;;11.3;59.24
4326;BME280;58429;49.826;10.880;2023-05-19T00:06:31;99378;;;11.26;58.76
4326;BME280;58429;49.826;10.880;2023-05-19T00:07:31;99378;;;11.29;58.85
4326;BME280;58429;49.826;10.880;2023-05-19T00:08:31;99378;;;11.27;58.75
4326;BME280;58429;49.826;10.880;2023-05-19T00:09:32;99373;;;11.28;58.63
4326;BME280;58429;49.826;10.880;2023-05-19T00:10:32;99373;;;11.24;58.98
4326;BME280;58429;49.826;10.880;2023-05-19T00:11:32;99366;;;11.27;59
4326;BME280;58429;49.826;10.880;2023-05-19T00:12:31;99375;;;11.27;59.01
4326;BME280;58429;49.826;10.880;2023-05-19T00:13:32;99375;;;11.24;59.22
4326;BME280;58429;49.826;10.880;2023-05-19T00:14:32;99371;;;11.28;59.17
4326;BME280;58429;49.826;10.880;2023-05-19T00:15:31;99370;;;11.26;59.27
4326;BME280;58429;49.826;10.880;2023-05-19T00:16:32;99366;;;11.27;59.14
4326;BME280;58429;49.826;10.880;2023-05-19T00:17:31;99365;;;11.23;59.4
4326;BME280;58429;49.826;10.880;2023-05-19T00:18:31;99366;;;11.2;59.12
4326;BME280;58429;49.826;10.880;2023-05-19T00:19:31;99370;;;11.21;59.46
4326;BME280;58429;49.826;10.880;2023-05-19T00:20:31;99371;;;11.22;59.59
4326;BME280;58429;49.826;10.880;2023-05-19T00:21:31;99358;;;11.19;59.86
4326;BME280;58429;49.826;10.880;2023-05-19T00:22:31;99362;;;11.17;59.87
4326;BME280;58429;49.826;10.880;2023-05-19T00:23:31;99366;;;11.2;60.11
4326;BME280;58429;49.826;10.880;2023-05-19T00:24:31;99364;;;11.17;60.03
4326;BME280;58429;49.826;10.880;2023-05-19T00:25:31;99359;;;11.18;60.01
4326;BME280;58429;49.826;10.880;2023-05-19T00:26:31;99359;;;11.18;60.16
4326;BME280;58429;49.826;10.880;2023-05-19T00:27:31;99359;;;11.19;60.35
4326;BME280;58429;49.826;10.880;2023-05-19T00:28:31;99358;;;11.16;60.48
4326;BME280;58429;49.826;10.880;2023-05-19T00:29:31;99362;;;11.15;60.38
4326;BME280;58429;49.826;10.880;2023-05-19T00:30:31;99357;;;11.13;60.19
4326;BME280;58429;49.826;10.880;2023-05-19T00:31:31;99351;;;11.17;60.2
4326;BME280;58429;49.826;10.880;2023-05-19T00:32:31;99358;;;11.13;60.27
4326;BME280;58429;49.826;10.880;2023-05-19T00:33:31;99359;;;11.13;60.14
4326;BME280;58429;49.826;10.880;2023-05-19T00:34:32;99357;;;11.14;60.27
4326;BME280;58429;49.826;10.880;2023-05-19T00:35:31;99351;;;11.11;60.27
4326;BME280;58429;49.826;10.880;2023-05-19T00:36:31;99361;;;11.14;60.49
4326;BME280;58429;49.826;10.880;2023-05-19T00:37:31;99356;;;11.09;60.24
4326;BME280;58429;49.826;10.880;2023-05-19T00:38:32;99357;;;11.1;60.36
4326;BME280;58429;49.826;10.880;2023-05-19T00:39:31;99363;;;11.08;60.33
4326;BME280;58429;49.826;10.880;2023-05-19T00:40:32;99356;;;11.12;60.34
4326;BME280;58429;49.826;10.880;2023-05-19T00:41:31;99352;;;11.08;60.46
4326;BME280;58429;49.826;10.880;2023-05-19T00:42:31;99353;;;11;60.37
4326;BME280;58429;49.826;10.880;2023-05-19T00:43:31;99351;;;11.02;60.41
4326;BME280;58429;49.826;10.880;2023-05-19T00:44:31;99356;;;11;60.25
4326;BME280;58429;49.826;10.880;2023-05-19T00:45:31;99351;;;11.01;60.48
4326;BME280;58429;49.826;10.880;2023-05-19T00:46:32;99352;;;11;60.48
4326;BME280;58429;49.826;10.880;2023-05-19T00:47:32;99353;;;10.99;60.51
4326;BME280;58429;49.826;10.880;2023-05-19T00:48:31;99349;;;10.98;60.56
4326;BME280;58429;49.826;10.880;2023-05-19T00:49:31;99352;;;10.96;60.28
4326;BME280;58429;49.826;10.880;2023-05-19T00:50:32;99345;;;10.93;60.45
4326;BME280;58429;49.826;10.880;2023-05-19T00:51:31;99346;;;10.94;60.41
4326;BME280;58429;49.826;10.880;2023-05-19T00:52:31;99344;;;10.92;60.47
4326;BME280;58429;49.826;10.880;2023-05-19T00:53:32;99350;;;10.92;60.74
4326;BME280;58429;49.826;10.880;2023-05-19T00:54:32;99344;;;10.89;60.77
4326;BME280;58429;49.826;10.880;2023-05-19T00:55:31;99349;;;10.89;60.73
4326;BME280;58429;49.826;10.880;2023-05-19T00:56:31;99349;;;10.85;60.67
4326;BME280;58429;49.826;10.880;2023-05-19T00:57:31;99343;;;10.89;60.47
4326;BME280;58429;49.826;10.880;2023-05-19T00:58:31;99341;;;10.89;60.56
4326;BME280;58429;49.826;10.880;2023-05-19T00:59:31;99349;;;10.87;60.61
4326;BME280;58429;49.826;10.880;2023-05-19T01:00:31;99347;;;10.86;60.95
4326;BME280;58429;49.826;10.880;2023-05-19T01:01:31;99343;;;10.86;61.03
4326;BME280;58429;49.826;10.880;2023-05-19T01:02:31;99343;;;10.84;61.14
4326;BME280;58429;49.826;10.880;2023-05-19T01:03:32;99343;;;10.81;61.14
4326;BME280;58429;49.826;10.880;2023-05-19T01:04:31;99343;;;10.81;61.4
4326;BME280;58429;49.826;10.880;2023-05-19T01:05:31;99339;;;10.78;61.47
4326;BME280;58429;49.826;10.880;2023-05-19T01:06:31;99340;;;10.78;61.34
4326;BME280;58429;49.826;10.880;2023-05-19T01:07:32;99347;;;10.74;61.61
4326;BME280;58429;49.826;10.880;2023-05-19T01:08:32;99338;;;10.72;61.72
4326;BME280;58429;49.826;10.880;2023-05-19T01:09:31;99338;;;10.76;61.79
4326;BME280;58429;49.826;10.880;2023-05-19T01:10:31;99339;;;10.72;61.46
4326;BME280;58429;49.826;10.880;2023-05-19T01:11:31;99339;;;10.76;61.38
4326;BME280;58429;49.826;10.880;2023-05-19T01:12:31;99341;;;10.69;61.37
4326;BME280;58429;49.826;10.880;2023-05-19T01:13:31;99345;;;10.71;61.32
4326;BME280;58429;49.826;10.880;2023-05-19T01:14:31;99343;;;10.68;61.24
4326;BME280;58429;49.826;10.880;2023-05-19T01:15:32;99346;;;10.72;61.37
4326;BME280;58429;49.826;10.880;2023-05-19T01:16:33;99345;;;10.68;61.29
4326;BME280;58429;49.826;10.880;2023-05-19T01:17:32;99338;;;10.68;61.59
4326;BME280;58429;49.826;10.880;2023-05-19T01:18:36;99336;;;10.68;61.41
4326;BME280;58429;49.826;10.880;2023-05-19T01:19:39;99346;;;10.67;61.28
4326;BME280;58429;49.826;10.880;2023-05-19T01:20:34;99341;;;10.69;61.36
4326;BME280;58429;49.826;10.880;2023-05-19T01:21:39;99344;;;10.68;61.44
4326;BME280;58429;49.826;10.880;2023-05-19T01:22:40;99337;;;10.66;61.52
4326;BME280;58429;49.826;10.880;2023-05-19T01:23:32;99340;;;10.65;61.86
4326;BME280;58429;49.826;10.880;2023-05-19T01:24:33;99342;;;10.63;62.03
4326;BME280;58429;49.826;10.880;2023-05-19T01:25:36;99332;;;10.62;61.86
4326;BME280;58429;49.826;10.880;2023-05-19T01:26:34;99337;;;10.68;61.91
4326;BME280;58429;49.826;10.880;2023-05-19T01:27:36;99330;;;10.66;62.04
4326;BME280;58429;49.826;10.880;2023-05-19T01:28:38;99338;;;10.65;61.99
4326;BME280;58429;49.826;10.880;2023-05-19T01:29:38;99334;;;10.61;61.94
4326;BME280;58429;49.826;10.880;2023-05-19T01:30:32;99325;;;10.64;61.96
4326;BME280;58429;49.826;10.880;2023-05-19T01:31:31;99330;;;10.63;62.05
4326;BME280;58429;49.826;10.880;2023-05-19T01:32:31;99329;;;10.63;62.11
4326;BME280;58429;49.826;10.880;2023-05-19T01:33:32;99338;;;10.6;62.35
4326;BME280;58429;49.826;10.880;2023-05-19T01:34:32;99330;;;10.62;62.44
4326;BME280;58429;49.826;10.880;2023-05-19T01:35:31;99326;;;10.62;62.42
4326;BME280;58429;49.826;10.880;2023-05-19T01:36:32;99335;;;10.6;62.36
4326;BME280;58429;49.826;10.880;2023-05-19T01:37:31;99321;;;10.6;62.21
4326;BME280;58429;49.826;10.880;2023-05-19T01:38:31;99333;;;10.59;62.55
4326;BME280;58429;49.826;10.880;2023-05-19T01:39:31;99332;;;10.59;62.57
4326;BME280;58429;49.826;10.880;2023-05-19T01:40:32;99322;;;10.54;62.58
4326;BME280;58429;49.826;10.880;2023-05-19T01:41:31;99331;;;10.56;62.53
4326;BME280;58429;49.826;10.880;2023-05-19T01:42:32;99335;;;10.55;62.65
4326;BME280;58429;49.826;10.880;2023-05-19T01:43:32;99329;;;10.51;62.84
4326;BME280;58429;49.826;10.880;2023-05-19T01:44:31;99325;;;10.51;62.64
4326;BME280;58429;49.826;10.880;2023-05-19T01:45:32;99330;;;10.54;62.63
4326;BME280;58429;49.826;10.880;2023-05-19T01:46:32;99328;;;10.53;62.97
4326;BME280;58429;49.826;10.880;2023-05-19T01:47:32;99337;;;10.49;62.79
4326;BME280;58429;49.826;10.880;2023-05-19T01:48:31;99336;;;10.44;63.05
4326;BME280;58429;49.826;10.880;2023-05-19T01:49:32;99337;;;10.42;62.87
4326;BME280;58429;49.826;10.880;2023-05-19T01:50:32;99333;;;10.42;62.76
4326;BME280;58429;49.826;10.880;2023-05-19T01:51:32;99337;;;10.41;62.98
4326;BME280;58429;49.826;10.880;2023-05-19T01:52:32;99333;;;10.41;63.02
4326;BME280;58429;49.826;10.880;2023-05-19T01:53:31;99339;;;10.4;62.85
4326;BME280;58429;49.826;10.880;2023-05-19T01:54:32;99333;;;10.35;62.93
4326;BME280;58429;49.826;10.880;2023-05-19T01:55:31;99324;;;10.38;63.01
4326;BME280;58429;49.826;10.880;2023-05-19T01:56:37;99330;;;10.35;63.04
4326;BME280;58429;49.826;10.880;2023-05-19T01:57:33;99330;;;10.35;62.95
4326;BME280;58429;49.826;10.880;2023-05-19T01:58:35;99328;;;10.34;63.22
4326;BME280;58429;49.826;10.880;2023-05-19T01:59:35;99320;;;10.3;63.75
4326;BME280;58429;49.826;10.880;2023-05-19T02:00:33;99324;;;10.26;63.73
4326;BME280;58429;49.826;10.880;2023-05-19T02:01:32;99323;;;10.22;63.58
4326;BME280;58429;49.826;10.880;2023-05-19T02:02:33;99326;;;10.22;63.54
4326;BME280;58429;49.826;10.880;2023-05-19T02:03:36;99320;;;10.18;63.82
4326;BME280;58429;49.826;10.880;2023-05-19T02:04:32;99320;;;10.12;63.87
4326;BME280;58429;49.826;10.880;2023-05-19T02:05:33;99318;;;10.08;64.34
4326;BME280;58429;49.826;10.880;2023-05-19T02:06:38;99322;;;10;65.03
4326;BME280;58429;49.826;10.880;2023-05-19T02:07:34;99320;;;10.03;64.65
4326;BME280;58429;49.826;10.880;2023-05-19T02:08:32;99317;;;9.98;64.82
4326;BME280;58429;49.826;10.880;2023-05-19T02:09:33;99316;;;9.94;65.02
4326;BME280;58429;49.826;10.880;2023-05-19T02:10:31;99312;;;9.88;64.86
4326;BME280;58429;49.826;10.880;2023-05-19T02:11:34;99321;;;9.9;64.84
4326;BME280;58429;49.826;10.880;2023-05-19T02:12:33;99312;;;9.9;64.85
4326;BME280;58429;49.826;10.880;2023-05-19T02:13:32;99314;;;9.93;65.08
4326;BME280;58429;49.826;10.880;2023-05-19T02:14:32;99317;;;9.86;65.04
4326;BME280;58429;49.826;10.880;2023-05-19T02:15:33;99316;;;9.87;65.01
4326;BME280;58429;49.826;10.880;2023-05-19T02:16:31;99312;;;9.87;65.14
4326;BME280;58429;49.826;10.880;2023-05-19T02:17:32;99316;;;9.85;65.1
4326;BME280;58429;49.826;10.880;2023-05-19T02:18:32;99316;;;9.86;65.14
4326;BME280;58429;49.826;10.880;2023-05-19T02:19:32;99310;;;9.85;65.33
4326;BME280;58429;49.826;10.880;2023-05-19T02:20:31;99312;;;9.83;65.41
4326;BME280;58429;49.826;10.880;2023-05-19T02:21:32;99316;;;9.84;65.48
4326;BME280;58429;49.826;10.880;2023-05-19T02:22:32;99316;;;9.82;65.37
4326;BME280;58429;49.826;10.880;2023-05-19T02:23:32;99313;;;9.78;65.52
4326;BME280;58429;49.826;10.880;2023-05-19T02:24:32;99310;;;9.8;65.72
4326;BME280;58429;49.826;10.880;2023-05-19T02:25:31;99313;;;9.77;65.93
4326;BME280;58429;49.826;10.880;2023-05-19T02:26:31;99315;;;9.71;66.43
4326;BME280;58429;49.826;10.880;2023-05-19T02:27:32;99314;;;9.7;66.53
4326;BME280;58429;49.826;10.880;2023-05-19T02:28:31;99310;;;9.65;66.81
4326;BME280;58429;49.826;10.880;2023-05-19T02:29:31;99317;;;9.64;66.97
4326;BME280;58429;49.826;10.880;2023-05-19T02:30:32;99315;;;9.61;66.65
4326;BME280;58429;49.826;10.880;2023-05-19T02:31:32;99320;;;9.6;66.59
4326;BME280;58429;49.826;10.880;2023-05-19T02:32:32;99316;;;9.59;66.63
4326;BME280;58429;49.826;10.880;2023-05-19T02:33:31;99318;;;9.58;66.91
4326;BME280;58429;49.826;10.880;2023-05-19T02:34:32;99320;;;9.57;67.02
4326;BME280;58429;49.826;10.880;2023-05-19T02:35:32;99321;;;9.58;67.1
4326;BME280;58429;49.826;10.880;2023-05-19T02:36:32;99319;;;9.54;67.28
4326;BME280;58429;49.826;10.880;2023-05-19T02:37:32;99313;;;9.57;67.53
4326;BME280;58429;49.826;10.880;2023-05-19T02:38:32;99312;;;9.53;67.28
4326;BME280;58429;49.826;10.880;2023-05-19T02:39:31;99316;;;9.55;67.44
4326;BME280;58429;49.826;10.880;2023-05-19T02:40:31;99308;;;9.53;67.68
4326;BME280;58429;49.826;10.880;2023-05-19T02:41:32;99310;;;9.55;67.71
4326;BME280;58429;49.826;10.880;2023-05-19T02:42:32;99312;;;9.46;67.79
4326;BME280;58429;49.826;10.880;2023-05-19T02:43:31;99304;;;9.5;67.68
4326;BME280;58429;49.826;10.880;2023-05-19T02:44:32;99312;;;9.47;67.74
4326;BME280;58429;49.826;10.880;2023-05-19T02:45:32;99312;;;9.47;68.22
4326;BME280;58429;49.826;10.880;2023-05-19T02:46:31;99317;;;9.46;68.04
4326;BME280;58429;49.826;10.880;2023-05-19T02:47:32;99315;;;9.45;68.02
4326;BME280;58429;49.826;10.880;2023-05-19T02:48:31;99305;;;9.44;68.08
4326;BME280;58429;49.826;10.880;2023-05-19T02:49:31;99309;;;9.41;67.87
4326;BME280;58429;49.826;10.880;2023-05-19T02:50:32;99301;;;9.41;68.17
4326;BME280;58429;49.826;10.880;2023-05-19T02:51:31;99303;;;9.42;68.27
4326;BME280;58429;49.826;10.880;2023-05-19T02:52:32;99304;;;9.43;67.83
4326;BME280;58429;49.826;10.880;2023-05-19T02:53:31;99304;;;9.42;67.86
4326;BME280;58429;49.826;10.880;2023-05-19T02:54:32;99303;;;9.46;67.89
4326;BME280;58429;49.826;10.880;2023-05-19T02:55:32;99307;;;9.43;67.84
4326;BME280;58429;49.826;10.880;2023-05-19T02:56:31;99303;;;9.44;67.76
4326;BME280;58429;49.826;10.880;2023-05-19T02:57:33;99303;;;9.49;67.66
4326;BME280;58429;49.826;10.880;2023-05-19T02:58:32;99303;;;9.45;67.84
4326;BME280;58429;49.826;10.880;2023-05-19T02:59:31;99305;;;9.43;67.84
4326;BME280;58429;49.826;10.880;2023-05-19T03:00:32;99301;;;9.46;67.82
4326;BME280;58429;49.826;10.880;2023-05-19T03:01:32;99302;;;9.5;67.98
4326;BME280;58429;49.826;10.880;2023-05-19T03:02:31;99307;;;9.5;67.84
4326;BME280;58429;49.826;10.880;2023-05-19T03:03:32;99305;;;9.54;67.72
4326;BME280;58429;49.826;10.880;2023-05-19T03:04:31;99301;;;9.57;67.79
4326;BME280;58429;49.826;10.880;2023-05-19T03:05:31;99307;;;9.57;67.81
4326;BME280;58429;49.826;10.880;2023-05-19T03:06:32;99308;;;9.54;67.97
4326;BME280;58429;49.826;10.880;2023-05-19T03:07:31;99301;;;9.54;68.11
4326;BME280;58429;49.826;10.880;2023-05-19T03:08:31;99299;;;9.54;68.02
4326;BME280;58429;49.826;10.880;2023-05-19T03:09:32;99296;;;9.58;68.24
4326;BME280;58429;49.826;10.880;2023-05-19T03:10:32;99299;;;9.54;68.19
4326;BME280;58429;49.826;10.880;2023-05-19T03:11:32;99301;;;9.52;68.22
4326;BME280;58429;49.826;10.880;2023-05-19T03:12:31;99297;;;9.54;68.26
4326;BME280;58429;49.826;10.880;2023-05-19T03:13:31;99293;;;9.5;68.51
4326;BME280;58429;49.826;10.880;2023-05-19T03:14:32;99292;;;9.56;68.6
4326;BME280;58429;49.826;10.880;2023-05-19T03:15:31;99297;;;9.55;68.68
4326;BME280;58429;49.826;10.880;2023-05-19T03:16:32;99301;;;9.54;68.79
4326;BME280;58429;49.826;10.880;2023-05-19T03:17:32;99302;;;9.49;68.73
4326;BME280;58429;49.826;10.880;2023-05-19T03:18:32;99297;;;9.42;68.89
4326;BME280;58429;49.826;10.880;2023-05-19T03:19:32;99296;;;9.4;68.75
4326;BME280;58429;49.826;10.880;2023-05-19T03:20:32;99302;;;9.42;68.56
4326;BME280;58429;49.826;10.880;2023-05-19T03:21:31;99296;;;9.44;68.6
4326;BME280;58429;49.826;10.880;2023-05-19T03:22:32;99299;;;9.43;68.71
4326;BME280;58429;49.826;10.880;2023-05-19T03:23:31;99294;;;9.41;68.86
4326;BME280;58429;49.826;10.880;2023-05-19T03:24:31;99301;;;9.42;69.07
4326;BME280;58429;49.826;10.880;2023-05-19T03:25:32;99298;;;9.37;69.03
4326;BME280;58429;49.826;10.880;2023-05-19T03:26:32;99299;;;9.35;69.07
4326;BME280;58429;49.826;10.880;2023-05-19T03:27:32;99304;;;9.36;68.76
4326;BME280;58429;49.826;10.880;2023-05-19T03:28:32;99308;;;9.38;68.67
4326;BME280;58429;49.826;10.880;2023-05-19T03:29:31;99297;;;9.38;68.55
4326;BME280;58429;49.826;10.880;2023-05-19T03:30:32;99303;;;9.39;68.63
4326;BME280;58429;49.826;10.880;2023-05-19T03:31:31;99302;;;9.43;68.68
4326;BME280;58429;49.826;10.880;2023-05-19T03:32:31;99301;;;9.4;69.21
4326;BME280;58429;49.826;10.880;2023-05-19T03:33:32;99294;;;9.38;69.09
4326;BME280;58429;49.826;10.880;2023-05-19T03:34:31;99303;;;9.38;68.98
4326;BME280;58429;49.826;10.880;2023-05-19T03:35:32;99311;;;9.4;69.06
4326;BME280;58429;49.826;10.880;2023-05-19T03:36:31;99304;;;9.41;69.04
4326;BME280;58429;49.826;10.880;2023-05-19T03:37:31;99306;;;9.43;69
4326;BME280;58429;49.826;10.880;2023-05-19T03:38:32;99305;;;9.42;69.05
4326;BME280;58429;49.826;10.880;2023-05-19T03:39:31;99300;;;9.43;68.91
4326;BME280;58429;49.826;10.880;2023-05-19T03:40:31;99308;;;9.47;68.97
4326;BME280;58429;49.826;10.880;2023-05-19T03:41:32;99310;;;9.44;69.18
4326;BME280;58429;49.826;10.880;2023-05-19T03:42:32;99306;;;9.42;69.19
4326;BME280;58429;49.826;10.880;2023-05-19T03:43:32;99315;;;9.43;68.91
4326;BME280;58429;49.826;10.880;2023-05-19T03:44:32;99314;;;9.45;68.9
4326;BME280;58429;49.826;10.880;2023-05-19T03:45:32;99311;;;9.44;68.82
4326;BME280;58429;49.826;10.880;2023-05-19T03:46:32;99311;;;9.48;68.62
4326;BME280;58429;49.826;10.880;2023-05-19T03:47:31;99315;;;9.5;68.62
4326;BME280;58429;49.826;10.880;2023-05-19T03:48:32;99313;;;9.48;68.78
4326;BME280;58429;49.826;10.880;2023-05-19T03:49:31;99318;;;9.49;68.92
4326;BME280;58429;49.826;10.880;2023-05-19T03:50:32;99314;;;9.49;68.99
4326;BME280;58429;49.826;10.880;2023-05-19T03:51:32;99315;;;9.54;68.87
4326;BME280;58429;49.826;10.880;2023-05-19T03:52:32;99314;;;9.55;68.72
4326;BME280;58429;49.826;10.880;2023-05-19T03:53:31;99315;;;9.58;68.82
4326;BME280;58429;49.826;10.880;2023-05-19T03:54:32;99320;;;9.53;68.74
4326;BME280;58429;49.826;10.880;2023-05-19T03:55:32;99321;;;9.58;68.86
4326;BME280;58429;49.826;10.880;2023-05-19T03:56:32;99318;;;9.49;68.76
4326;BME280;58429;49.826;10.880;2023-05-19T03:57:32;99318;;;9.54;68.82
4326;BME280;58429;49.826;10.880;2023-05-19T03:58:32;99314;;;9.56;68.89
4326;BME280;58429;49.826;10.880;2023-05-19T03:59:32;99323;;;9.57;69.02
4326;BME280;58429;49.826;10.880;2023-05-19T04:00:32;99324;;;9.52;69.19
4326;BME280;58429;49.826;10.880;2023-05-19T04:01:32;99324;;;9.56;69.19
4326;BME280;58429;49.826;10.880;2023-05-19T04:02:32;99322;;;9.55;69.56
4326;BME280;58429;49.826;10.880;2023-05-19T04:03:32;99317;;;9.53;69.77
4326;BME280;58429;49.826;10.880;2023-05-19T04:04:32;99321;;;9.5;69.99
4326;BME280;58429;49.826;10.880;2023-05-19T04:05:32;99328;;;9.5;70.36
4326;BME280;58429;49.826;10.880;2023-05-19T04:06:32;99322;;;9.47;70.13
4326;BME280;58429;49.826;10.880;2023-05-19T04:07:32;99326;;;9.46;70.16
4326;BME280;58429;49.826;10.880;2023-05-19T04:08:32;99330;;;9.42;70.12
4326;BME280;58429;49.826;10.880;2023-05-19T04:09:32;99319;;;9.42;70.17
4326;BME280;58429;49.826;10.880;2023-05-19T04:10:32;99324;;;9.44;69.94
4326;BME280;58429;49.826;10.880;2023-05-19T04:11:32;99323;;;9.48;69.88
4326;BME280;58429;49.826;10.880;2023-05-19T04:12:32;99325;;;9.49;69.75
4326;BME280;58429;49.826;10.880;2023-05-19T04:13:32;99329;;;9.53;69.47
4326;BME280;58429;49.826;10.880;2023-05-19T04:14:32;99333;;;9.53;69.45
4326;BME280;58429;49.826;10.880;2023-05-19T04:15:32;99326;;;9.57;69.56
4326;BME280;58429;49.826;10.880;2023-05-19T04:16:32;99325;;;9.55;69.78
4326;BME280;58429;49.826;10.880;2023-05-19T04:17:32;99331;;;9.6;70.03
4326;BME280;58429;49.826;10.880;2023-05-19T04:18:32;99324;;;9.61;70.19
4326;BME280;58429;49.826;10.880;2023-05-19T04:19:32;99328;;;9.66;70.12
4326;BME280;58429;49.826;10.880;2023-05-19T04:20:32;99329;;;9.66;70.21
4326;BME280;58429;49.826;10.880;2023-05-19T04:21:32;99319;;;9.67;70.25
4326;BME280;58429;49.826;10.880;2023-05-19T04:22:32;99321;;;9.7;70.58
4326;BME280;58429;49.826;10.880;2023-05-19T04:23:32;99325;;;9.73;70.56
4326;BME280;58429;49.826;10.880;2023-05-19T04:24:32;99322;;;9.74;70.52
4326;BME280;58429;49.826;10.880;2023-05-19T04:25:32;99321;;;9.76;70.62
4326;BME280;58429;49.826;10.880;2023-05-19T04:26:32;99318;;;9.77;70.86
4326;BME280;58429;49.826;10.880;2023-05-19T04:27:32;99320;;;9.79;70.87
4326;BME280;58429;49.826;10.880;2023-05-19T04:28:32;99320;;;9.82;70.88
4326;BME280;58429;49.826;10.880;2023-05-19T04:29:32;99327;;;9.81;70.84
4326;BME280;58429;49.826;10.880;2023-05-19T04:30:32;99323;;;9.84;71.06
4326;BME280;58429;49.826;10.880;2023-05-19T04:31:32;99319;;;9.84;70.97
4326;BME280;58429;49.826;10.880;2023-05-19T04:32:32;99327;;;9.86;70.99
4326;BME280;58429;49.826;10.880;2023-05-19T04:33:32;99333;;;9.85;71.16
4326;BME280;58429;49.826;10.880;2023-05-19T04:34:32;99326;;;9.86;71.17
4326;BME280;58429;49.826;10.880;2023-05-19T04:35:32;99324;;;9.88;71.08
4326;BME280;58429;49.826;10.880;2023-05-19T04:36:32;99328;;;9.88;70.64
4326;BME280;58429;49.826;10.880;2023-05-19T04:37:32;99333;;;9.93;70.63
4326;BME280;58429;49.826;10.880;2023-05-19T04:38:32;99331;;;9.93;70.45
4326;BME280;58429;49.826;10.880;2023-05-19T04:39:32;99319;;;9.95;70.48
4326;BME280;58429;49.826;10.880;2023-05-19T04:40:32;99321;;;9.94;70.34
4326;BME280;58429;49.826;10.880;2023-05-19T04:41:32;99327;;;9.98;70.1
4326;BME280;58429;49.826;10.880;2023-05-19T04:42:32;99325;;;9.98;69.97
4326;BME280;58429;49.826;10.880;2023-05-19T04:43:32;99326;;;10.03;69.87
4326;BME280;58429;49.826;10.880;2023-05-19T04:44:32;99328;;;10.04;69.87
4326;BME280;58429;49.826;10.880;2023-05-19T04:45:32;99322;;;10.04;69.97
4326;BME280;58429;49.826;10.880;2023-05-19T04:46:32;99324;;;10.09;69.99
4326;BME280;58429;49.826;10.880;2023-05-19T04:47:32;99320;;;10.1;69.87
4326;BME280;58429;49.826;10.880;2023-05-19T04:48:32;99332;;;10.12;69.76
4326;BME280;58429;49.826;10.880;2023-05-19T04:49:32;99333;;;10.12;69.78
4326;BME280;58429;49.826;10.880;2023-05-19T04:50:32;99327;;;10.17;69.55
4326;BME280;58429;49.826;10.880;2023-05-19T04:51:32;99330;;;10.17;69.47
4326;BME280;58429;49.826;10.880;2023-05-19T04:52:32;99335;;;10.18;69.5
4326;BME280;58429;49.826;10.880;2023-05-19T04:53:32;99334;;;10.24;69.52
4326;BME280;58429;49.826;10.880;2023-05-19T04:54:32;99330;;;10.24;69.52
4326;BME280;58429;49.826;10.880;2023-05-19T04:55:32;99335;;;10.28;69.6
4326;BME280;58429;49.826;10.880;2023-05-19T04:56:32;99337;;;10.28;69.53
4326;BME280;58429;49.826;10.880;2023-05-19T04:57:32;99337;;;10.32;69.44
4326;BME280;58429;49.826;10.880;2023-05-19T04:58:32;99334;;;10.32;69.26
4326;BME280;58429;49.826;10.880;2023-05-19T04:59:32;99334;;;10.35;69.11
4326;BME280;58429;49.826;10.880;2023-05-19T05:00:32;99339;;;10.36;69
4326;BME280;58429;49.826;10.880;2023-05-19T05:01:32;99334;;;10.38;68.84
4326;BME280;58429;49.826;10.880;2023-05-19T05:02:32;99335;;;10.4;68.66
4326;BME280;58429;49.826;10.880;2023-05-19T05:03:32;99332;;;10.4;68.56
4326;BME280;58429;49.826;10.880;2023-05-19T05:04:32;99332;;;10.42;68.68
4326;BME280;58429;49.826;10.880;2023-05-19T05:05:33;99330;;;10.51;68.84
4326;BME280;58429;49.826;10.880;2023-05-19T05:06:32;99330;;;10.52;68.76
4326;BME280;58429;49.826;10.880;2023-05-19T05:07:32;99337;;;10.53;68.69
4326;BME280;58429;49.826;10.880;2023-05-19T05:08:32;99337;;;10.6;68.82
4326;BME280;58429;49.826;10.880;2023-05-19T05:09:32;99336;;;10.6;68.52
4326;BME280;58429;49.826;10.880;2023-05-19T05:10:32;99337;;;10.6;68.28
4326;BME280;58429;49.826;10.880;2023-05-19T05:11:32;99333;;;10.61;68.26
4326;BME280;58429;49.826;10.880;2023-05-19T05:12:32;99329;;;10.66;68.27
4326;BME280;58429;49.826;10.880;2023-05-19T05:13:32;99333;;;10.68;68.43
4326;BME280;58429;49.826;10.880;2023-05-19T05:14:32;99326;;;10.71;68.1
4326;BME280;58429;49.826;10.880;2023-05-19T05:15:32;99328;;;10.71;68.12
4326;BME280;58429;49.826;10.880;2023-05-19T05:16:32;99328;;;10.77;68.24
4326;BME280;58429;49.826;10.880;2023-05-19T05:17:32;99324;;;10.77;68.34
4326;BME280;58429;49.826;10.880;2023-05-19T05:18:32;99323;;;10.79;68.43
4326;BME280;58429;49.826;10.880;2023-05-19T05:19:32;99317;;;10.81;68.4
4326;BME280;58429;49.826;10.880;2023-05-19T05:20:32;99325;;;10.83;68.36
4326;BME280;58429;49.826;10.880;2023-05-19T05:21:32;99326;;;10.83;68.04
4326;BME280;58429;49.826;10.880;2023-05-19T05:22:32;99331;;;10.85;68.05
4326;BME280;58429;49.826;10.880;2023-05-19T05:23:32;99321;;;10.89;68
4326;BME280;58429;49.826;10.880;2023-05-19T05:24:32;99318;;;10.87;68
4326;BME280;58429;49.826;10.880;2023-05-19T05:25:32;99318;;;10.91;67.92
4326;BME280;58429;49.826;10.880;2023-05-19T05:26:32;99320;;;10.92;67.72
4326;BME280;58429;49.826;10.880;2023-05-19T05:27:32;99315;;;10.94;67.75
4326;BME280;58429;49.826;10.880;2023-05-19T05:28:32;99322;;;11;67.85
4326;BME280;58429;49.826;10.880;2023-05-19T05:29:32;99325;;;11;67.81
4326;BME280;58429;49.826;10.880;2023-05-19T05:30:32;99321;;;11.02;67.97
4326;BME280;58429;49.826;10.880;2023-05-19T05:31:32;99316;;;11.08;67.97
4326;BME280;58429;49.826;10.880;2023-05-19T05:32:32;99320;;;11.08;67.8
4326;BME280;58429;49.826;10.880;2023-05-19T05:33:32;99319;;;11.08;67.62
4326;BME280;58429;49.826;10.880;2023-05-19T05:34:32;99318;;;11.1;67.63